Time,TemperatureF,DewpointF,PressureIn,WindDirection,WindDirectionDegrees,WindSpeedMPH,WindSpeedGustMPH,Humidity,HourlyPrecipIn,Conditions,Clouds,dailyrainin,SolarRadiationWatts/m^2,SoftwareType,DateUTC
2013-08-15 00:02:00,53.0,38.0,-100.00,WNW,285,3.0,7.0,57,0.00,,,0.00,0.000000,,2013-08-15 06:02:00,
2013-08-15 00:11:00,53.0,38.0,-100.00,WNW,285,3.0,7.0,57,0.00,,,0.00,0.000000,,2013-08-15 06:11:00,
2013-08-15 00:42:00,52.0,38.0,-100.00,West,272,4.0,7.0,59,0.00,,,0.00,0.000000,,2013-08-15 06:42:00,
2013-08-15 00:52:00,52.0,38.0,-100.00,West,272,4.0,7.0,59,0.00,,,0.00,0.000000,,2013-08-15 06:52:00,
2013-08-15 01:02:00,52.0,38.0,-100.00,West,272,4.0,7.0,59,0.00,,,0.00,0.000000,,2013-08-15 07:02:00,
2013-08-15 01:11:00,52.0,38.0,-100.00,West,272,4.0,7.0,59,0.00,,,0.00,0.000000,,2013-08-15 07:11:00,
2013-08-15 01:42:00,50.0,38.0,-100.00,West,270,3.0,10.0,62,0.00,,,0.00,0.000000,,2013-08-15 07:42:00,
2013-08-15 01:52:00,50.0,38.0,-100.00,West,270,3.0,10.0,62,0.00,,,0.00,0.000000,,2013-08-15 07:52:00,
2013-08-15 02:02:00,50.0,38.0,-100.00,West,270,3.0,10.0,62,0.00,,,0.00,0.000000,,2013-08-15 08:02:00,
2013-08-15 02:11:00,50.0,38.0,-100.00,West,270,3.0,10.0,62,0.00,,,0.00,0.000000,,2013-08-15 08:11:00,
2013-08-15 02:42:00,51.0,37.0,-100.00,West,271,4.0,7.0,59,0.00,,,0.00,0.000000,,2013-08-15 08:42:00,
2013-08-15 02:52:00,51.0,37.0,-100.00,West,271,4.0,7.0,59,0.00,,,0.00,0.000000,,2013-08-15 08:52:00,
2013-08-15 03:01:00,51.0,37.0,-100.00,West,271,4.0,7.0,59,0.00,,,0.00,0.000000,,2013-08-15 09:01:00,
2013-08-15 03:11:00,51.0,37.0,-100.00,West,271,4.0,7.0,59,0.00,,,0.00,0.000000,,2013-08-15 09:11:00,
2013-08-15 03:42:00,50.0,36.0,-100.00,WNW,282,5.0,9.0,59,0.00,,,0.00,0.000000,,2013-08-15 09:42:00,
2013-08-15 03:53:00,50.0,36.0,-100.00,WNW,282,5.0,9.0,59,0.00,,,0.00,0.000000,,2013-08-15 09:53:00,
2013-08-15 04:03:00,50.0,36.0,-100.00,WNW,282,5.0,9.0,59,0.00,,,0.00,0.000000,,2013-08-15 10:03:00,
2013-08-15 04:11:00,50.0,36.0,-100.00,WNW,282,5.0,9.0,59,0.00,,,0.00,0.000000,,2013-08-15 10:11:00,
2013-08-15 04:42:00,49.0,37.0,-100.00,West,267,4.0,7.0,62,0.00,,,0.00,0.000000,,2013-08-15 10:42:00,
2013-08-15 04:52:00,49.0,37.0,-100.00,West,267,4.0,7.0,62,0.00,,,0.00,0.000000,,2013-08-15 10:52:00,
2013-08-15 05:02:00,49.0,37.0,-100.00,West,267,4.0,7.0,62,0.00,,,0.00,0.000000,,2013-08-15 11:02:00,
2013-08-15 05:11:00,49.0,37.0,-100.00,West,267,4.0,7.0,62,0.00,,,0.00,0.000000,,2013-08-15 11:11:00,
2013-08-15 05:42:00,50.0,36.0,-100.00,WNW,287,5.0,7.0,59,0.00,,,0.00,0.000000,,2013-08-15 11:42:00,
2013-08-15 05:52:00,50.0,36.0,-100.00,WNW,287,5.0,7.0,59,0.00,,,0.00,0.000000,,2013-08-15 11:52:00,
2013-08-15 06:01:00,50.0,36.0,-100.00,WNW,287,5.0,7.0,59,0.00,,,0.00,0.000000,,2013-08-15 12:01:00,
2013-08-15 06:11:00,50.0,36.0,-100.00,WNW,287,5.0,7.0,59,0.00,,,0.00,0.000000,,2013-08-15 12:11:00,
2013-08-15 06:42:00,50.0,36.0,-100.00,WNW,288,5.0,7.0,59,0.00,,,0.00,0.000000,,2013-08-15 12:42:00,
2013-08-15 06:52:00,50.0,36.0,-100.00,WNW,288,5.0,7.0,59,0.00,,,0.00,0.000000,,2013-08-15 12:52:00,
2013-08-15 07:01:00,50.0,36.0,-100.00,WNW,288,5.0,7.0,59,0.00,,,0.00,0.000000,,2013-08-15 13:01:00,
2013-08-15 07:11:00,50.0,36.0,-100.00,WNW,288,5.0,7.0,59,0.00,,,0.00,0.000000,,2013-08-15 13:11:00,
2013-08-15 07:42:00,50.0,38.0,-100.00,WNW,282,5.0,8.0,62,0.00,,,0.00,21.000000,,2013-08-15 13:42:00,
2013-08-15 07:52:00,50.0,38.0,-100.00,WNW,282,5.0,8.0,62,0.00,,,0.00,21.000000,,2013-08-15 13:52:00,
2013-08-15 08:01:00,50.0,38.0,-100.00,WNW,282,5.0,8.0,62,0.00,,,0.00,21.000000,,2013-08-15 14:01:00,
2013-08-15 08:11:00,50.0,38.0,-100.00,WNW,282,5.0,8.0,62,0.00,,,0.00,21.000000,,2013-08-15 14:11:00,
2013-08-15 10:13:00,69.0,42.0,-100.00,West,277,3.0,5.0,38,0.00,,,-99.99,436.000000,,2013-08-15 16:13:00,
2013-08-15 10:15:00,73.0,42.0,-100.00,ESE,112,7.0,10.0,33,0.00,,,0.00,641.000000,,2013-08-15 16:15:00,
2013-08-15 10:44:00,73.0,42.0,-100.00,ESE,112,7.0,10.0,33,0.00,,,0.00,641.000000,,2013-08-15 16:44:00,
2013-08-15 10:55:00,73.0,42.0,-100.00,ESE,112,7.0,10.0,33,0.00,,,0.00,641.000000,,2013-08-15 16:55:00,
2013-08-15 11:06:00,73.0,42.0,-100.00,ESE,112,7.0,10.0,33,0.00,,,0.00,641.000000,,2013-08-15 17:06:00,
2013-08-15 11:15:00,74.0,39.0,-100.00,ESE,120,8.0,13.0,28,0.00,,,0.00,799.000000,,2013-08-15 17:15:00,
2013-08-15 11:55:00,74.0,39.0,-100.00,ESE,120,8.0,13.0,28,0.00,,,0.00,799.000000,,2013-08-15 17:55:00,
2013-08-15 12:10:00,74.0,39.0,-100.00,ESE,120,8.0,13.0,28,0.00,,,0.00,799.000000,,2013-08-15 18:10:00,
2013-08-15 12:15:00,75.0,41.0,-100.00,ESE,119,10.0,15.0,29,0.00,,,0.00,934.000000,,2013-08-15 18:15:00,
2013-08-15 13:06:00,-999.0,-99.9,-100.00,ESE,119,10.0,15.0,-999,0.00,,,0.00,934.000000,,2013-08-15 19:06:00,
2013-08-15 13:49:00,77.0,34.0,-100.00,ESE,105,11.0,17.0,21,0.00,,,0.00,1005.000000,,2013-08-15 19:49:00,
2013-08-15 14:09:00,77.0,34.0,-100.00,ESE,105,11.0,17.0,21,0.00,,,0.00,1005.000000,,2013-08-15 20:09:00,
2013-08-15 14:15:00,78.0,36.0,-100.00,East,94,10.0,18.0,22,0.00,,,0.00,977.000000,,2013-08-15 20:15:00,
2013-08-15 14:46:00,78.0,36.0,-100.00,East,94,10.0,18.0,22,0.00,,,0.00,977.000000,,2013-08-15 20:46:00,
2013-08-15 14:58:00,78.0,36.0,-100.00,East,94,10.0,18.0,22,0.00,,,0.00,977.000000,,2013-08-15 20:58:00,
2013-08-15 15:05:00,78.0,36.0,-100.00,East,94,10.0,18.0,22,0.00,,,0.00,977.000000,,2013-08-15 21:05:00,
2013-08-15 15:15:00,78.0,35.0,-100.00,ESE,102,10.0,19.0,21,0.00,,,0.00,764.000000,,2013-08-15 21:15:00,
2013-08-15 15:49:00,78.0,35.0,-100.00,ESE,102,10.0,19.0,21,0.00,,,0.00,764.000000,,2013-08-15 21:49:00,
2013-08-15 15:57:00,78.0,35.0,-100.00,ESE,102,10.0,19.0,21,0.00,,,0.00,764.000000,,2013-08-15 21:57:00,
2013-08-15 16:09:00,78.0,35.0,-100.00,ESE,102,10.0,19.0,21,0.00,,,0.00,764.000000,,2013-08-15 22:09:00,
2013-08-15 16:15:00,78.0,36.0,-100.00,ESE,108,9.0,16.0,22,0.00,,,0.00,670.000000,,2013-08-15 22:15:00,
2013-08-15 16:58:00,78.0,36.0,-100.00,ESE,108,9.0,16.0,22,0.00,,,0.00,670.000000,,2013-08-15 22:58:00,
2013-08-15 17:07:00,78.0,36.0,-100.00,ESE,108,9.0,16.0,22,0.00,,,0.00,670.000000,,2013-08-15 23:07:00,
2013-08-15 17:48:00,78.0,36.0,-100.00,East,99,8.0,15.0,22,0.00,,,0.00,634.000000,,2013-08-15 23:48:00,
2013-08-15 17:55:00,78.0,36.0,-100.00,East,99,8.0,15.0,22,0.00,,,0.00,634.000000,,2013-08-15 23:55:00,
2013-08-15 18:08:00,78.0,36.0,-100.00,East,99,8.0,15.0,22,0.00,,,0.00,634.000000,,2013-08-16 00:08:00,
2013-08-15 18:15:00,78.0,37.0,-100.00,SE,126,4.0,12.0,23,0.00,,,0.00,428.000000,,2013-08-16 00:15:00,
2013-08-15 18:46:00,78.0,37.0,-100.00,SE,126,4.0,12.0,23,0.00,,,0.00,428.000000,,2013-08-16 00:46:00,
2013-08-15 18:52:00,78.0,37.0,-100.00,SE,126,4.0,12.0,23,0.00,,,0.00,428.000000,,2013-08-16 00:52:00,
2013-08-15 19:03:00,78.0,37.0,-100.00,SE,126,4.0,12.0,23,0.00,,,0.00,428.000000,,2013-08-16 01:03:00,
2013-08-15 19:43:00,-999.0,-99.9,-100.00,East,89,3.0,-999.0,-999,-99.99,,,-99.99,,,2013-08-16 01:43:00,
2013-08-15 19:46:00,76.0,40.0,-100.00,East,89,3.0,10.0,27,0.00,,,0.00,246.000000,,2013-08-16 01:46:00,
2013-08-15 19:54:00,76.0,40.0,-100.00,East,89,3.0,10.0,27,0.00,,,0.00,246.000000,,2013-08-16 01:54:00,
2013-08-15 20:02:00,76.0,40.0,-100.00,East,89,3.0,10.0,27,0.00,,,0.00,246.000000,,2013-08-16 02:02:00,
2013-08-15 20:12:00,76.0,40.0,-100.00,East,89,3.0,10.0,27,0.00,,,0.00,246.000000,,2013-08-16 02:12:00,
2013-08-15 20:44:00,66.0,38.0,-100.00,WNW,299,5.0,7.0,36,0.00,,,0.00,38.000000,,2013-08-16 02:44:00,
2013-08-15 20:52:00,66.0,38.0,-100.00,WNW,299,5.0,7.0,36,0.00,,,0.00,38.000000,,2013-08-16 02:52:00,
2013-08-15 21:03:00,66.0,38.0,-100.00,WNW,299,5.0,7.0,36,0.00,,,0.00,38.000000,,2013-08-16 03:03:00,
2013-08-15 21:11:00,66.0,38.0,-100.00,WNW,299,5.0,7.0,36,0.00,,,0.00,38.000000,,2013-08-16 03:11:00,
2013-08-15 21:43:00,62.0,37.0,-100.00,West,280,4.0,8.0,40,0.00,,,0.00,2.000000,,2013-08-16 03:43:00,
2013-08-15 21:53:00,62.0,37.0,-100.00,West,280,4.0,8.0,40,0.00,,,0.00,2.000000,,2013-08-16 03:53:00,
2013-08-15 22:03:00,62.0,37.0,-100.00,West,280,4.0,8.0,40,0.00,,,0.00,2.000000,,2013-08-16 04:03:00,
2013-08-15 22:13:00,62.0,37.0,-100.00,West,280,4.0,8.0,40,0.00,,,0.00,2.000000,,2013-08-16 04:13:00,
2013-08-15 22:43:00,60.0,40.0,-100.00,West,276,5.0,8.0,47,0.00,,,0.00,0.000000,,2013-08-16 04:43:00,
2013-08-15 22:53:00,60.0,40.0,-100.00,West,276,5.0,8.0,47,0.00,,,0.00,0.000000,,2013-08-16 04:53:00,
2013-08-15 23:02:00,60.0,40.0,-100.00,West,276,5.0,8.0,47,0.00,,,0.00,0.000000,,2013-08-16 05:02:00,
2013-08-15 23:11:00,60.0,40.0,-100.00,West,276,5.0,8.0,47,0.00,,,0.00,0.000000,,2013-08-16 05:11:00,